Pagina principală
METAR-TAF:

METAR-TAF

Aeroporturi :

Apia, Upolu, Samoa

Latitudine: 13-49S, longitudine: 172-00W, elevație: 5 m

Observații meteo curente

Raportul a fost făcut în urmă cu 59 de minute, la 14:00 UTC
Vânt 4 kt de la Est
Temperatură 24°C
Umiditate 100%
Presiune 1012 hPa
Vizibilitate de 10 km sau mai mult
Nori puțini la o înălțime de 2800 picior

METAR: NSFA 251400Z 10004KT 9999 FEW028 24/24 Q1012

Ora: 03:59 (14:59 UTC)

Prognoză

Raportul a fost făcut în urmă cu 3 ore și 54 de minute, la 11:05 UTC
Prognoză valabilă de la 25 ora 12 UTC la 26 ora 12 UTC
Vânt 8 kt de la Est
Vizibilitate de 10 km sau mai mult
Nori împrăștiați la o înălțime de 2400 picior
Nori împrăștiați la o înălțime de 10000 picior
Probabilitate 40% :
Temporar
de la 25 ora 12 UTC la 25 ora 15 UTC
Vizibilitate: 5000 m
averse de ploaie

TAF: NSFA 251105Z 2512/2612 09008KT 9999 SCT024 SCT100 PROB40 TEMPO 2512/2515 5000 SHRA

Observații și prognoze meteo pentru peste 4.000 de aeroporturi (rapoarte METAR și TAF).

Stațiile disponibile sunt reprezentate pe hartă prin puncte galbene și roșii.

Țineți indicatorul mouse-ului pe punctul dorit pentru a vedea denumirea stației.

Apoi, faceți clic pentru a vedea observațiile și prognozele meteorologice.

Pentru a schimba harta: Pentru mărire, faceți clic pe butoanele verzi cu cruce neagră; pentru micșorare, pe butonul verde cu o liniuță; pentru hărți învecinate, pe săgețile verzi.


METAR-TAF: